sensor_id;sensor_type;location;lat;lon;timestamp;pressure;altitude;pressure_sealevel;temperature;humidity
40730;BME280;26418;50.070;8.436;2022-07-06T00:00:57;100638.31;;;18.56;52.19
40730;BME280;26418;50.070;8.436;2022-07-06T00:03:22;100658.44;;;18.60;52.05
40730;BME280;26418;50.070;8.436;2022-07-06T00:05:48;100673.84;;;18.65;52.39
40730;BME280;26418;50.070;8.436;2022-07-06T00:08:13;100665.69;;;18.56;52.45
40730;BME280;26418;50.070;8.436;2022-07-06T00:10:38;100648.28;;;18.39;52.55
40730;BME280;26418;50.070;8.436;2022-07-06T00:13:04;100675.63;;;18.48;52.65
40730;BME280;26418;50.070;8.436;2022-07-06T00:15:29;100655.94;;;18.34;53.08
40730;BME280;26418;50.070;8.436;2022-07-06T00:17:54;100681.34;;;18.56;52.88
40730;BME280;26418;50.070;8.436;2022-07-06T00:20:20;100665.06;;;18.38;53.01
40730;BME280;26418;50.070;8.436;2022-07-06T00:22:45;100669.94;;;18.32;53.43
40730;BME280;26418;50.070;8.436;2022-07-06T00:25:10;100678.84;;;18.29;53.62
40730;BME280;26418;50.070;8.436;2022-07-06T00:27:36;100656.50;;;18.18;53.71
40730;BME280;26418;50.070;8.436;2022-07-06T00:30:01;100674.94;;;18.30;53.77
40730;BME280;26418;50.070;8.436;2022-07-06T00:32:26;100668.41;;;18.22;53.86
40730;BME280;26418;50.070;8.436;2022-07-06T00:34:53;100678.03;;;18.29;53.78
40730;BME280;26418;50.070;8.436;2022-07-06T00:37:18;100672.94;;;18.18;53.88
40730;BME280;26418;50.070;8.436;2022-07-06T00:39:43;100670.63;;;18.08;54.33
40730;BME280;26418;50.070;8.436;2022-07-06T00:42:09;100655.53;;;17.93;54.84
40730;BME280;26418;50.070;8.436;2022-07-06T00:44:34;100637.63;;;17.74;55.08
40730;BME280;26418;50.070;8.436;2022-07-06T00:46:59;100660.63;;;17.82;55.23
40730;BME280;26418;50.070;8.436;2022-07-06T00:49:25;100668.00;;;17.82;55.31
40730;BME280;26418;50.070;8.436;2022-07-06T00:52:10;100671.63;;;17.95;55.29
40730;BME280;26418;50.070;8.436;2022-07-06T00:54:36;100682.28;;;17.96;55.08
40730;BME280;26418;50.070;8.436;2022-07-06T00:57:02;100661.41;;;17.83;55.07
40730;BME280;26418;50.070;8.436;2022-07-06T00:59:28;100664.06;;;17.70;55.26
40730;BME280;26418;50.070;8.436;2022-07-06T01:01:54;100684.91;;;17.84;55.66
40730;BME280;26418;50.070;8.436;2022-07-06T01:04:19;100684.41;;;17.82;55.45
40730;BME280;26418;50.070;8.436;2022-07-06T01:06:45;100693.44;;;17.82;55.77
40730;BME280;26418;50.070;8.436;2022-07-06T01:09:11;100689.13;;;17.72;55.80
40730;BME280;26418;50.070;8.436;2022-07-06T01:11:37;100676.50;;;17.59;55.82
40730;BME280;26418;50.070;8.436;2022-07-06T01:14:02;100687.09;;;17.60;56.03
40730;BME280;26418;50.070;8.436;2022-07-06T01:16:27;100686.97;;;17.57;56.24
40730;BME280;26418;50.070;8.436;2022-07-06T01:18:53;100682.16;;;17.54;56.41
40730;BME280;26418;50.070;8.436;2022-07-06T01:21:18;100680.28;;;17.46;56.47
40730;BME280;26418;50.070;8.436;2022-07-06T01:23:46;100670.47;;;17.44;56.59
40730;BME280;26418;50.070;8.436;2022-07-06T01:26:17;100683.56;;;17.60;56.42
40730;BME280;26418;50.070;8.436;2022-07-06T01:28:44;100672.00;;;17.54;56.24
40730;BME280;26418;50.070;8.436;2022-07-06T01:31:21;100670.91;;;17.47;56.28
40730;BME280;26418;50.070;8.436;2022-07-06T01:33:48;100680.22;;;17.54;56.36
40730;BME280;26418;50.070;8.436;2022-07-06T01:36:14;100686.03;;;17.53;56.26
40730;BME280;26418;50.070;8.436;2022-07-06T01:38:47;100685.75;;;17.46;55.70
40730;BME280;26418;50.070;8.436;2022-07-06T01:41:13;100660.22;;;17.24;56.26
40730;BME280;26418;50.070;8.436;2022-07-06T01:43:38;100656.56;;;17.20;55.85
40730;BME280;26418;50.070;8.436;2022-07-06T01:46:03;100668.09;;;17.25;55.48
40730;BME280;26418;50.070;8.436;2022-07-06T01:48:29;100665.69;;;17.24;55.60
40730;BME280;26418;50.070;8.436;2022-07-06T01:50:54;100660.72;;;17.26;55.82
40730;BME280;26418;50.070;8.436;2022-07-06T01:53:19;100667.66;;;17.23;55.18
40730;BME280;26418;50.070;8.436;2022-07-06T01:55:45;100649.50;;;17.10;55.15
40730;BME280;26418;50.070;8.436;2022-07-06T01:58:10;100651.94;;;17.03;54.97
40730;BME280;26418;50.070;8.436;2022-07-06T02:00:35;100672.81;;;17.07;55.16
40730;BME280;26418;50.070;8.436;2022-07-06T02:03:01;100635.25;;;16.87;55.00
40730;BME280;26418;50.070;8.436;2022-07-06T02:05:26;100649.53;;;16.92;55.22
40730;BME280;26418;50.070;8.436;2022-07-06T02:07:51;100655.16;;;16.87;55.11
40730;BME280;26418;50.070;8.436;2022-07-06T02:10:17;100674.00;;;16.97;54.95
40730;BME280;26418;50.070;8.436;2022-07-06T02:12:42;100660.63;;;16.87;55.08
40730;BME280;26418;50.070;8.436;2022-07-06T02:15:08;100644.91;;;16.66;55.25
40730;BME280;26418;50.070;8.436;2022-07-06T02:17:35;100651.69;;;16.69;55.44
40730;BME280;26418;50.070;8.436;2022-07-06T02:20:01;100641.88;;;16.59;55.32
40730;BME280;26418;50.070;8.436;2022-07-06T02:22:26;100643.47;;;16.60;55.34
40730;BME280;26418;50.070;8.436;2022-07-06T02:24:52;100655.84;;;16.66;55.42
40730;BME280;26418;50.070;8.436;2022-07-06T02:27:17;100647.19;;;16.64;55.26
40730;BME280;26418;50.070;8.436;2022-07-06T02:29:42;100649.59;;;16.57;55.54
40730;BME280;26418;50.070;8.436;2022-07-06T02:32:08;100660.19;;;16.59;55.52
40730;BME280;26418;50.070;8.436;2022-07-06T02:34:33;100658.09;;;16.56;56.01
40730;BME280;26418;50.070;8.436;2022-07-06T02:36:58;100656.66;;;16.58;55.98
40730;BME280;26418;50.070;8.436;2022-07-06T02:39:25;100649.13;;;16.55;56.09
40730;BME280;26418;50.070;8.436;2022-07-06T02:41:51;100656.84;;;16.62;55.42
40730;BME280;26418;50.070;8.436;2022-07-06T02:44:16;100654.09;;;16.62;55.65
40730;BME280;26418;50.070;8.436;2022-07-06T02:46:41;100658.75;;;16.61;55.81
40730;BME280;26418;50.070;8.436;2022-07-06T02:49:06;100649.25;;;16.50;56.33
40730;BME280;26418;50.070;8.436;2022-07-06T02:51:32;100642.03;;;16.45;56.16
40730;BME280;26418;50.070;8.436;2022-07-06T02:53:57;100644.78;;;16.37;56.22
40730;BME280;26418;50.070;8.436;2022-07-06T02:56:22;100653.13;;;16.40;56.29
40730;BME280;26418;50.070;8.436;2022-07-06T02:58:48;100636.59;;;16.19;56.38
40730;BME280;26418;50.070;8.436;2022-07-06T03:01:13;100645.44;;;16.25;56.94
40730;BME280;26418;50.070;8.436;2022-07-06T03:03:39;100650.41;;;16.31;56.59
40730;BME280;26418;50.070;8.436;2022-07-06T03:06:04;100637.72;;;16.18;56.78
40730;BME280;26418;50.070;8.436;2022-07-06T03:08:29;100668.41;;;16.32;56.80
40730;BME280;26418;50.070;8.436;2022-07-06T03:10:55;100649.28;;;16.24;57.01
40730;BME280;26418;50.070;8.436;2022-07-06T03:13:20;100649.13;;;16.11;57.26
40730;BME280;26418;50.070;8.436;2022-07-06T03:15:45;100652.03;;;16.15;57.41
40730;BME280;26418;50.070;8.436;2022-07-06T03:18:11;100661.78;;;16.07;57.74
40730;BME280;26418;50.070;8.436;2022-07-06T03:20:36;100655.19;;;15.99;57.98
40730;BME280;26418;50.070;8.436;2022-07-06T03:23:02;100648.78;;;15.95;58.05
40730;BME280;26418;50.070;8.436;2022-07-06T03:25:27;100674.13;;;15.96;58.23
40730;BME280;26418;50.070;8.436;2022-07-06T03:27:52;100670.78;;;15.99;58.19
40730;BME280;26418;50.070;8.436;2022-07-06T03:30:17;100650.34;;;15.87;58.44
40730;BME280;26418;50.070;8.436;2022-07-06T03:32:43;100672.22;;;15.96;58.60
40730;BME280;26418;50.070;8.436;2022-07-06T03:35:08;100677.34;;;15.89;58.80
40730;BME280;26418;50.070;8.436;2022-07-06T03:37:34;100658.34;;;15.75;59.14
40730;BME280;26418;50.070;8.436;2022-07-06T03:39:59;100684.69;;;15.88;59.32
40730;BME280;26418;50.070;8.436;2022-07-06T03:42:24;100660.75;;;15.77;59.42
40730;BME280;26418;50.070;8.436;2022-07-06T03:44:50;100671.03;;;15.80;59.42
40730;BME280;26418;50.070;8.436;2022-07-06T03:47:15;100651.72;;;15.67;59.58
40730;BME280;26418;50.070;8.436;2022-07-06T03:49:40;100668.75;;;15.73;59.48
40730;BME280;26418;50.070;8.436;2022-07-06T03:52:06;100675.03;;;15.74;59.95
40730;BME280;26418;50.070;8.436;2022-07-06T03:54:31;100653.78;;;15.62;60.17
40730;BME280;26418;50.070;8.436;2022-07-06T03:56:56;100673.88;;;15.75;59.78
40730;BME280;26418;50.070;8.436;2022-07-06T03:59:22;100684.16;;;15.78;59.82
40730;BME280;26418;50.070;8.436;2022-07-06T04:01:47;100671.16;;;15.75;60.03
40730;BME280;26418;50.070;8.436;2022-07-06T04:04:12;100687.41;;;15.80;60.00
40730;BME280;26418;50.070;8.436;2022-07-06T04:06:38;100689.94;;;15.76;60.20
40730;BME280;26418;50.070;8.436;2022-07-06T04:09:03;100677.09;;;15.68;59.99
40730;BME280;26418;50.070;8.436;2022-07-06T04:11:28;100670.03;;;15.67;60.07
40730;BME280;26418;50.070;8.436;2022-07-06T04:13:54;100679.00;;;15.67;60.53
40730;BME280;26418;50.070;8.436;2022-07-06T04:16:20;100681.25;;;15.65;61.82
40730;BME280;26418;50.070;8.436;2022-07-06T04:18:45;100687.59;;;15.83;60.54
40730;BME280;26418;50.070;8.436;2022-07-06T04:21:13;100693.22;;;15.87;60.67
40730;BME280;26418;50.070;8.436;2022-07-06T04:23:38;100690.16;;;15.88;60.13
40730;BME280;26418;50.070;8.436;2022-07-06T04:26:04;100685.16;;;15.82;60.29
40730;BME280;26418;50.070;8.436;2022-07-06T04:28:29;100714.09;;;15.92;60.11
40730;BME280;26418;50.070;8.436;2022-07-06T04:30:54;100695.50;;;15.62;60.88
40730;BME280;26418;50.070;8.436;2022-07-06T04:33:20;100719.47;;;15.74;60.78
40730;BME280;26418;50.070;8.436;2022-07-06T04:35:45;100711.38;;;15.60;61.38
40730;BME280;26418;50.070;8.436;2022-07-06T04:38:17;100710.88;;;15.58;60.96
40730;BME280;26418;50.070;8.436;2022-07-06T04:40:43;100718.28;;;15.66;60.98
40730;BME280;26418;50.070;8.436;2022-07-06T04:43:11;100698.06;;;15.59;60.86
40730;BME280;26418;50.070;8.436;2022-07-06T04:45:36;100716.38;;;15.67;61.10
40730;BME280;26418;50.070;8.436;2022-07-06T04:48:02;100718.19;;;15.80;60.79
40730;BME280;26418;50.070;8.436;2022-07-06T04:50:28;100710.31;;;15.79;60.74
40730;BME280;26418;50.070;8.436;2022-07-06T04:52:53;100708.53;;;15.74;60.32
40730;BME280;26418;50.070;8.436;2022-07-06T04:55:18;100720.00;;;15.85;60.53
40730;BME280;26418;50.070;8.436;2022-07-06T04:57:44;100677.72;;;15.65;60.18
40730;BME280;26418;50.070;8.436;2022-07-06T05:00:10;100730.97;;;16.02;59.95
40730;BME280;26418;50.070;8.436;2022-07-06T05:02:35;100721.81;;;15.98;59.95
40730;BME280;26418;50.070;8.436;2022-07-06T05:05:00;100707.19;;;15.94;59.84
40730;BME280;26418;50.070;8.436;2022-07-06T05:07:26;100713.16;;;16.05;59.60
40730;BME280;26418;50.070;8.436;2022-07-06T05:09:54;100713.63;;;16.07;59.26
40730;BME280;26418;50.070;8.436;2022-07-06T05:12:19;100710.59;;;16.09;59.25
40730;BME280;26418;50.070;8.436;2022-07-06T05:14:45;100722.16;;;16.14;59.07
40730;BME280;26418;50.070;8.436;2022-07-06T05:17:10;100734.84;;;16.19;59.15
40730;BME280;26418;50.070;8.436;2022-07-06T05:19:35;100735.97;;;16.18;59.36
40730;BME280;26418;50.070;8.436;2022-07-06T05:22:01;100727.28;;;16.07;59.21
40730;BME280;26418;50.070;8.436;2022-07-06T05:24:26;100725.53;;;16.11;58.83
40730;BME280;26418;50.070;8.436;2022-07-06T05:26:51;100731.00;;;16.29;59.00
40730;BME280;26418;50.070;8.436;2022-07-06T05:29:17;100745.78;;;16.45;58.34
40730;BME280;26418;50.070;8.436;2022-07-06T05:31:42;100733.91;;;16.41;58.11
40730;BME280;26418;50.070;8.436;2022-07-06T05:34:07;100738.09;;;16.39;58.03
40730;BME280;26418;50.070;8.436;2022-07-06T05:36:33;100743.06;;;16.45;57.99
40730;BME280;26418;50.070;8.436;2022-07-06T05:38:58;100738.09;;;16.39;58.05
40730;BME280;26418;50.070;8.436;2022-07-06T05:41:23;100748.22;;;16.47;57.96
40730;BME280;26418;50.070;8.436;2022-07-06T05:43:49;100743.72;;;16.42;58.27
40730;BME280;26418;50.070;8.436;2022-07-06T05:46:14;100701.16;;;16.15;57.75
40730;BME280;26418;50.070;8.436;2022-07-06T05:48:39;100743.88;;;16.46;57.19
40730;BME280;26418;50.070;8.436;2022-07-06T05:51:23;100734.09;;;16.54;57.68
40730;BME280;26418;50.070;8.436;2022-07-06T05:53:48;100732.47;;;16.61;57.10
40730;BME280;26418;50.070;8.436;2022-07-06T05:56:14;100740.84;;;16.82;56.78
40730;BME280;26418;50.070;8.436;2022-07-06T05:58:39;100740.22;;;16.94;55.60
40730;BME280;26418;50.070;8.436;2022-07-06T06:01:04;100743.56;;;17.09;55.59
40730;BME280;26418;50.070;8.436;2022-07-06T06:03:32;100759.28;;;17.29;55.21
40730;BME280;26418;50.070;8.436;2022-07-06T06:05:58;100763.28;;;17.41;54.43
40730;BME280;26418;50.070;8.436;2022-07-06T06:08:23;100754.25;;;17.40;53.53
40730;BME280;26418;50.070;8.436;2022-07-06T06:10:48;100738.84;;;17.36;53.59
40730;BME280;26418;50.070;8.436;2022-07-06T06:13:14;100765.00;;;17.54;53.73
40730;BME280;26418;50.070;8.436;2022-07-06T06:15:39;100770.28;;;17.59;53.64
40730;BME280;26418;50.070;8.436;2022-07-06T06:18:05;100766.72;;;17.68;53.70
40730;BME280;26418;50.070;8.436;2022-07-06T06:20:30;100765.72;;;17.72;53.67
40730;BME280;26418;50.070;8.436;2022-07-06T06:22:57;100766.50;;;17.82;53.92
40730;BME280;26418;50.070;8.436;2022-07-06T06:27:58;100758.41;;;17.94;53.51
40730;BME280;26418;50.070;8.436;2022-07-06T06:30:23;100752.47;;;17.92;52.96
40730;BME280;26418;50.070;8.436;2022-07-06T06:32:49;100752.47;;;17.92;52.50
40730;BME280;26418;50.070;8.436;2022-07-06T06:35:14;100756.31;;;17.91;52.37
40730;BME280;26418;50.070;8.436;2022-07-06T06:37:39;100762.72;;;18.04;52.46
40730;BME280;26418;50.070;8.436;2022-07-06T06:40:06;100777.44;;;18.20;52.19
40730;BME280;26418;50.070;8.436;2022-07-06T06:42:32;100752.94;;;18.24;51.48
40730;BME280;26418;50.070;8.436;2022-07-06T06:45:00;100771.53;;;18.61;51.58
40730;BME280;26418;50.070;8.436;2022-07-06T06:47:25;100761.44;;;18.74;51.04
40730;BME280;26418;50.070;8.436;2022-07-06T06:49:51;100774.38;;;18.94;50.90
40730;BME280;26418;50.070;8.436;2022-07-06T06:52:16;100728.81;;;18.81;50.42
40730;BME280;26418;50.070;8.436;2022-07-06T06:54:41;100782.34;;;19.21;50.13
40730;BME280;26418;50.070;8.436;2022-07-06T06:57:07;100783.88;;;19.30;50.25
40730;BME280;26418;50.070;8.436;2022-07-06T06:59:32;100792.72;;;19.48;49.78
40730;BME280;26418;50.070;8.436;2022-07-06T07:01:57;100774.53;;;19.44;48.72
40730;BME280;26418;50.070;8.436;2022-07-06T07:04:23;100794.41;;;19.41;49.22
40730;BME280;26418;50.070;8.436;2022-07-06T07:06:48;100795.00;;;19.46;48.92
40730;BME280;26418;50.070;8.436;2022-07-06T07:09:13;100787.59;;;19.59;48.87
40730;BME280;26418;50.070;8.436;2022-07-06T07:11:39;100785.97;;;19.58;48.07
40730;BME280;26418;50.070;8.436;2022-07-06T07:14:04;100793.09;;;19.72;48.35
40730;BME280;26418;50.070;8.436;2022-07-06T07:16:30;100787.97;;;19.83;47.92
40730;BME280;26418;50.070;8.436;2022-07-06T07:18:55;100798.66;;;19.97;47.10
40730;BME280;26418;50.070;8.436;2022-07-06T07:21:21;100799.19;;;20.02;46.78
40730;BME280;26418;50.070;8.436;2022-07-06T07:23:46;100796.69;;;19.97;46.86
40730;BME280;26418;50.070;8.436;2022-07-06T07:26:12;100792.34;;;19.96;46.11
40730;BME280;26418;50.070;8.436;2022-07-06T07:28:37;100794.47;;;19.78;46.57
40730;BME280;26418;50.070;8.436;2022-07-06T07:31:04;100798.91;;;19.70;46.99
40730;BME280;26418;50.070;8.436;2022-07-06T07:33:29;100781.44;;;19.62;47.04
40730;BME280;26418;50.070;8.436;2022-07-06T07:35:54;100771.47;;;19.70;46.61
40730;BME280;26418;50.070;8.436;2022-07-06T07:38:20;100800.94;;;19.94;46.00
40730;BME280;26418;50.070;8.436;2022-07-06T07:40:45;100799.53;;;20.01;45.50
40730;BME280;26418;50.070;8.436;2022-07-06T07:43:10;100803.66;;;19.94;46.61
40730;BME280;26418;50.070;8.436;2022-07-06T07:45:36;100786.25;;;19.90;45.55
40730;BME280;26418;50.070;8.436;2022-07-06T07:48:02;100792.56;;;20.03;45.22
40730;BME280;26418;50.070;8.436;2022-07-06T07:50:27;100798.06;;;20.16;45.56
40730;BME280;26418;50.070;8.436;2022-07-06T07:52:54;100796.56;;;20.18;44.42
40730;BME280;26418;50.070;8.436;2022-07-06T07:55:20;100783.88;;;20.01;44.53
40730;BME280;26418;50.070;8.436;2022-07-06T07:57:45;100788.56;;;20.13;44.62
40730;BME280;26418;50.070;8.436;2022-07-06T08:00:11;100786.06;;;20.20;44.30
40730;BME280;26418;50.070;8.436;2022-07-06T08:02:36;100784.31;;;20.28;44.03
40730;BME280;26418;50.070;8.436;2022-07-06T08:05:02;100805.34;;;20.36;43.25
40730;BME280;26418;50.070;8.436;2022-07-06T08:07:27;100796.91;;;20.41;43.12
40730;BME280;26418;50.070;8.436;2022-07-06T08:09:53;100802.69;;;20.65;42.88
40730;BME280;26418;50.070;8.436;2022-07-06T08:12:18;100782.53;;;20.61;41.32
40730;BME280;26418;50.070;8.436;2022-07-06T08:14:43;100795.66;;;20.92;41.08
40730;BME280;26418;50.070;8.436;2022-07-06T08:17:09;100808.66;;;21.08;40.43
40730;BME280;26418;50.070;8.436;2022-07-06T08:19:34;100795.59;;;21.04;40.27
40730;BME280;26418;50.070;8.436;2022-07-06T08:21:59;100790.91;;;21.05;40.03
40730;BME280;26418;50.070;8.436;2022-07-06T08:24:25;100781.50;;;21.06;40.52
40730;BME280;26418;50.070;8.436;2022-07-06T08:26:50;100811.09;;;21.25;39.71
40730;BME280;26418;50.070;8.436;2022-07-06T08:29:16;100800.22;;;21.16;39.46
40730;BME280;26418;50.070;8.436;2022-07-06T08:31:41;100797.38;;;21.13;39.34
40730;BME280;26418;50.070;8.436;2022-07-06T08:34:06;100787.34;;;21.04;39.31
40730;BME280;26418;50.070;8.436;2022-07-06T08:36:32;100795.38;;;20.97;39.61
40730;BME280;26418;50.070;8.436;2022-07-06T08:38:58;100803.44;;;21.18;39.04
40730;BME280;26418;50.070;8.436;2022-07-06T08:41:25;100801.69;;;21.42;39.01
40730;BME280;26418;50.070;8.436;2022-07-06T08:43:52;100802.66;;;21.62;39.03
40730;BME280;26418;50.070;8.436;2022-07-06T08:46:18;100800.34;;;21.64;37.05
40730;BME280;26418;50.070;8.436;2022-07-06T08:48:45;100808.88;;;21.75;37.12
40730;BME280;26418;50.070;8.436;2022-07-06T08:51:12;100808.44;;;21.89;37.01
40730;BME280;26418;50.070;8.436;2022-07-06T08:53:40;100797.59;;;21.80;36.51
40730;BME280;26418;50.070;8.436;2022-07-06T08:56:05;100790.84;;;21.78;36.03
40730;BME280;26418;50.070;8.436;2022-07-06T08:58:30;100798.72;;;21.95;35.84
40730;BME280;26418;50.070;8.436;2022-07-06T09:00:58;100805.22;;;22.19;35.48
40730;BME280;26418;50.070;8.436;2022-07-06T09:03:25;100799.88;;;22.26;35.01
40730;BME280;26418;50.070;8.436;2022-07-06T09:05:52;100812.47;;;22.43;35.96
40730;BME280;26418;50.070;8.436;2022-07-06T09:08:21;100789.88;;;22.38;35.47
40730;BME280;26418;50.070;8.436;2022-07-06T09:10:47;100804.22;;;22.63;34.31
40730;BME280;26418;50.070;8.436;2022-07-06T09:13:12;100809.44;;;22.68;34.38
40730;BME280;26418;50.070;8.436;2022-07-06T09:15:38;100804.66;;;22.85;34.38
40730;BME280;26418;50.070;8.436;2022-07-06T09:18:06;100786.09;;;22.82;33.77
40730;BME280;26418;50.070;8.436;2022-07-06T09:20:32;100808.78;;;23.14;33.14
40730;BME280;26418;50.070;8.436;2022-07-06T09:22:59;100809.81;;;23.45;32.40
40730;BME280;26418;50.070;8.436;2022-07-06T09:25:25;100800.66;;;23.41;32.12
40730;BME280;26418;50.070;8.436;2022-07-06T09:27:51;100803.41;;;23.41;32.44
40730;BME280;26418;50.070;8.436;2022-07-06T09:30:20;100797.72;;;23.53;32.04
40730;BME280;26418;50.070;8.436;2022-07-06T09:32:50;100801.47;;;23.65;31.60
40730;BME280;26418;50.070;8.436;2022-07-06T09:35:22;100794.31;;;23.87;31.58
40730;BME280;26418;50.070;8.436;2022-07-06T09:37:59;100804.00;;;23.74;31.85
40730;BME280;26418;50.070;8.436;2022-07-06T09:40:25;100797.34;;;23.55;31.53
40730;BME280;26418;50.070;8.436;2022-07-06T09:42:50;100809.94;;;23.52;31.80
40730;BME280;26418;50.070;8.436;2022-07-06T09:45:20;100798.94;;;23.33;32.60
40730;BME280;26418;50.070;8.436;2022-07-06T09:47:47;100814.41;;;23.61;32.21
40730;BME280;26418;50.070;8.436;2022-07-06T09:50:15;100809.75;;;23.88;32.15
40730;BME280;26418;50.070;8.436;2022-07-06T09:52:41;100792.88;;;23.70;31.58
40730;BME280;26418;50.070;8.436;2022-07-06T09:55:14;100799.47;;;23.89;30.73
40730;BME280;26418;50.070;8.436;2022-07-06T09:57:52;100797.53;;;24.12;30.46
40730;BME280;26418;50.070;8.436;2022-07-06T10:00:18;100794.22;;;24.30;30.13
40730;BME280;26418;50.070;8.436;2022-07-06T10:02:44;100799.09;;;24.40;30.12
40730;BME280;26418;50.070;8.436;2022-07-06T10:05:12;100801.00;;;24.63;29.58
40730;BME280;26418;50.070;8.436;2022-07-06T10:07:38;100796.94;;;24.87;29.36
40730;BME280;26418;50.070;8.436;2022-07-06T10:10:04;100799.41;;;24.92;29.39
40730;BME280;26418;50.070;8.436;2022-07-06T10:12:30;100782.41;;;24.94;28.93
40730;BME280;26418;50.070;8.436;2022-07-06T10:14:56;100795.88;;;25.33;29.01
40730;BME280;26418;50.070;8.436;2022-07-06T10:17:22;100796.94;;;25.59;29.18
40730;BME280;26418;50.070;8.436;2022-07-06T10:19:49;100802.72;;;25.88;28.77
40730;BME280;26418;50.070;8.436;2022-07-06T10:22:15;100791.16;;;25.79;27.94
40730;BME280;26418;50.070;8.436;2022-07-06T10:24:43;100786.28;;;25.61;28.64
40730;BME280;26418;50.070;8.436;2022-07-06T10:27:10;100791.38;;;25.55;28.31
40730;BME280;26418;50.070;8.436;2022-07-06T10:29:36;100787.59;;;25.82;27.93
40730;BME280;26418;50.070;8.436;2022-07-06T10:32:02;100797.13;;;25.81;28.38
40730;BME280;26418;50.070;8.436;2022-07-06T10:34:28;100756.78;;;25.38;28.30
40730;BME280;26418;50.070;8.436;2022-07-06T10:36:53;100796.34;;;25.84;28.82
40730;BME280;26418;50.070;8.436;2022-07-06T10:39:34;100800.34;;;25.90;28.54
40730;BME280;26418;50.070;8.436;2022-07-06T10:42:44;100788.97;;;26.02;28.82
40730;BME280;26418;50.070;8.436;2022-07-06T10:45:13;100791.25;;;25.89;28.75
40730;BME280;26418;50.070;8.436;2022-07-06T10:47:41;100795.19;;;25.88;28.22
40730;BME280;26418;50.070;8.436;2022-07-06T10:50:07;100795.41;;;25.27;28.97
40730;BME280;26418;50.070;8.436;2022-07-06T10:52:52;100795.13;;;24.99;29.13
40730;BME280;26418;50.070;8.436;2022-07-06T10:55:31;100793.03;;;24.31;29.46
40730;BME280;26418;50.070;8.436;2022-07-06T10:57:57;100797.72;;;24.27;29.85
40730;BME280;26418;50.070;8.436;2022-07-06T11:00:22;100789.41;;;24.54;29.04
40730;BME280;26418;50.070;8.436;2022-07-06T11:02:48;100792.66;;;24.59;28.18
40730;BME280;26418;50.070;8.436;2022-07-06T11:05:41;100797.19;;;24.17;28.91
40730;BME280;26418;50.070;8.436;2022-07-06T11:08:10;100783.16;;;24.30;29.09
40730;BME280;26418;50.070;8.436;2022-07-06T11:10:48;100784.22;;;24.52;28.56
40730;BME280;26418;50.070;8.436;2022-07-06T11:13:27;100798.59;;;24.92;28.14
40730;BME280;26418;50.070;8.436;2022-07-06T11:16:00;100785.53;;;25.26;27.88
40730;BME280;26418;50.070;8.436;2022-07-06T11:18:26;100787.09;;;25.69;27.48
40730;BME280;26418;50.070;8.436;2022-07-06T11:21:17;100789.28;;;26.57;26.39
40730;BME280;26418;50.070;8.436;2022-07-06T11:23:45;100764.06;;;26.80;25.65
40730;BME280;26418;50.070;8.436;2022-07-06T11:26:11;100774.09;;;27.32;25.09
40730;BME280;26418;50.070;8.436;2022-07-06T11:28:37;100779.28;;;27.55;25.93
40730;BME280;26418;50.070;8.436;2022-07-06T11:31:04;100768.19;;;27.69;25.82
40730;BME280;26418;50.070;8.436;2022-07-06T11:33:30;100773.66;;;28.31;26.52
40730;BME280;26418;50.070;8.436;2022-07-06T11:36:14;100768.75;;;28.71;24.16
40730;BME280;26418;50.070;8.436;2022-07-06T11:38:41;100769.97;;;28.70;23.65
40730;BME280;26418;50.070;8.436;2022-07-06T11:41:07;100777.50;;;28.69;23.09
40730;BME280;26418;50.070;8.436;2022-07-06T11:43:32;100758.03;;;28.73;22.96
40730;BME280;26418;50.070;8.436;2022-07-06T11:45:58;100763.72;;;29.15;23.25
40730;BME280;26418;50.070;8.436;2022-07-06T11:48:23;100758.22;;;29.64;23.08
40730;BME280;26418;50.070;8.436;2022-07-06T11:51:02;100754.50;;;30.20;23.22
40730;BME280;26418;50.070;8.436;2022-07-06T11:53:29;100745.72;;;30.21;22.09
40730;BME280;26418;50.070;8.436;2022-07-06T11:55:55;100757.72;;;30.18;21.85
40730;BME280;26418;50.070;8.436;2022-07-06T11:58:23;100742.72;;;30.01;21.51
40730;BME280;26418;50.070;8.436;2022-07-06T12:01:09;100738.56;;;29.78;22.29
40730;BME280;26418;50.070;8.436;2022-07-06T12:03:35;100745.72;;;29.34;22.93
40730;BME280;26418;50.070;8.436;2022-07-06T12:06:05;100747.19;;;29.49;23.18
40730;BME280;26418;50.070;8.436;2022-07-06T12:08:31;100745.00;;;29.23;22.47
40730;BME280;26418;50.070;8.436;2022-07-06T12:10:59;100742.22;;;29.19;22.91
40730;BME280;26418;50.070;8.436;2022-07-06T12:13:25;100747.91;;;29.57;22.68
40730;BME280;26418;50.070;8.436;2022-07-06T12:15:50;100744.31;;;29.60;22.97
40730;BME280;26418;50.070;8.436;2022-07-06T12:18:16;100748.44;;;29.45;22.22
40730;BME280;26418;50.070;8.436;2022-07-06T12:20:42;100732.03;;;29.54;22.71
40730;BME280;26418;50.070;8.436;2022-07-06T12:23:07;100751.22;;;29.87;22.31
40730;BME280;26418;50.070;8.436;2022-07-06T12:25:35;100750.50;;;30.21;22.38
40730;BME280;26418;50.070;8.436;2022-07-06T12:28:00;100742.16;;;30.55;21.53
40730;BME280;26418;50.070;8.436;2022-07-06T12:30:26;100737.16;;;30.98;21.20
40730;BME280;26418;50.070;8.436;2022-07-06T12:33:12;100730.31;;;31.30;20.49
40730;BME280;26418;50.070;8.436;2022-07-06T12:35:38;100735.59;;;30.97;21.11
40730;BME280;26418;50.070;8.436;2022-07-06T12:38:03;100716.25;;;30.82;20.96
40730;BME280;26418;50.070;8.436;2022-07-06T12:40:29;100726.25;;;30.80;21.37
40730;BME280;26418;50.070;8.436;2022-07-06T12:42:54;100732.09;;;30.62;21.40
40730;BME280;26418;50.070;8.436;2022-07-06T12:45:26;100724.91;;;30.30;21.39
40730;BME280;26418;50.070;8.436;2022-07-06T12:48:03;100742.81;;;29.90;22.29
40730;BME280;26418;50.070;8.436;2022-07-06T12:50:31;100740.69;;;29.67;22.54